Time;durP1;ratioP1;P1;durP2;ratioP2;P2;SDS_P1;SDS_P2;PMS_P1;PMS_P2;Temp;Humidity;BMP_temperature;BMP_pressure;BME280_temperature;BME280_humidity;BME280_pressure;Samples;Min_cycle;Max_cycle;Signal;HPM_P1;HPM_P2
2022/06/23 00:01:16;;;;;;;46.53;15.30;;;18.90;99.90;;;18.13;100.00;97005.94;5050360;28;20401;-81
2022/06/23 00:03:43;;;;;;;38.03;14.77;;;18.80;99.90;;;18.11;100.00;97003.59;5050982;28;20558;-81
2022/06/23 00:06:30;;;;;;;39.73;14.57;;;18.80;99.90;;;18.07;100.00;96999.94;5050676;28;20432;-81
2022/06/23 00:08:57;;;;;;;40.65;15.43;;;18.80;99.90;;;18.06;100.00;97002.91;5050230;28;20400;-81
2022/06/23 00:11:26;;;;;;;37.95;14.57;;;18.80;99.90;;;18.05;100.00;97007.47;5049964;28;20813;-81
2022/06/23 00:14:01;;;;;;;31.10;14.35;;;18.80;99.90;;;17.97;100.00;96997.50;5051125;28;20439;-82
2022/06/23 00:16:28;;;;;;;36.15;15.00;;;18.70;99.90;;;17.93;100.00;97001.13;5050316;28;20437;-82
2022/06/23 00:18:54;;;;;;;35.97;13.88;;;18.70;99.90;;;17.89;100.00;97000.97;5050512;28;20500;-82
2022/06/23 00:21:24;;;;;;;35.60;14.48;;;18.70;99.90;;;17.86;100.00;97006.91;5050078;28;20934;-81
2022/06/23 00:23:55;;;;;;;32.38;14.75;;;18.60;99.90;;;17.84;100.00;97010.97;5050563;28;20460;-81
2022/06/23 00:26:26;;;;;;;34.92;14.82;;;18.60;99.90;;;17.82;100.00;97008.59;5050080;28;20401;-81
2022/06/23 00:29:00;;;;;;;36.72;15.73;;;18.60;99.90;;;17.79;100.00;97009.22;5050554;28;20394;-82
2022/06/23 00:31:29;;;;;;;48.33;17.90;;;18.60;99.90;;;17.76;100.00;97010.63;5050242;28;20443;-81
2022/06/23 00:33:57;;;;;;;38.50;16.80;;;18.60;99.90;;;17.71;100.00;97004.63;5049809;28;20420;-82
2022/06/23 00:36:34;;;;;;;44.38;17.58;;;18.50;99.90;;;17.65;100.00;97012.00;5054211;28;20406;-82
2022/06/23 00:39:00;;;;;;;44.43;17.97;;;18.50;99.90;;;17.62;100.00;97015.25;5054302;28;20397;-82
2022/06/23 00:41:33;;;;;;;41.95;17.02;;;18.40;99.90;;;17.56;100.00;97018.34;5054620;28;20393;-81
2022/06/23 00:44:05;;;;;;;46.38;17.73;;;18.40;99.90;;;17.53;100.00;97022.41;5054264;28;20394;-82
2022/06/23 00:46:40;;;;;;;39.47;15.80;;;18.30;99.90;;;17.48;100.00;97022.53;5054003;28;20413;-82
2022/06/23 00:49:16;;;;;;;46.80;18.08;;;18.30;99.90;;;17.48;100.00;97033.25;5053483;28;20404;-82
2022/06/23 00:51:48;;;;;;;41.85;16.85;;;18.20;99.90;;;17.41;100.00;97024.84;5055012;28;20397;-82
2022/06/23 00:54:21;;;;;;;41.40;17.30;;;18.20;99.90;;;17.35;100.00;97015.38;5053974;28;20774;-83
2022/06/23 00:56:56;;;;;;;36.03;16.15;;;18.20;99.90;;;17.31;100.00;97019.72;5053624;28;20393;-83
2022/06/23 00:59:30;;;;;;;35.03;15.52;;;18.10;99.90;;;17.26;100.00;97009.16;5053389;28;20452;-82
2022/06/23 01:02:03;;;;;;;38.92;15.68;;;18.10;99.90;;;17.23;100.00;97010.53;5054278;28;20756;-83
2022/06/23 01:04:37;;;;;;;36.88;15.30;;;18.10;99.90;;;17.19;100.00;96998.88;5054224;28;20409;-82
2022/06/23 01:07:11;;;;;;;38.05;16.10;;;18.00;99.90;;;17.17;100.00;97003.72;5054751;28;20455;-82
2022/06/23 01:09:46;;;;;;;37.67;16.95;;;18.00;99.90;;;17.15;100.00;97002.44;5052904;28;20424;-82
2022/06/23 01:12:23;;;;;;;36.92;15.43;;;18.00;99.90;;;17.12;100.00;97013.75;5053290;28;20488;-83
2022/06/23 01:14:53;;;;;;;34.80;14.82;;;17.90;99.90;;;17.10;100.00;97019.41;5054000;28;20802;-82
2022/06/23 01:17:25;;;;;;;35.15;15.30;;;17.90;99.90;;;17.09;100.00;97027.72;5054019;28;20858;-82
2022/06/23 01:20:31;;;;;;;36.10;14.90;;;17.90;99.90;;;17.07;100.00;97035.25;5053376;28;20390;-82
2022/06/23 01:23:19;;;;;;;30.33;13.90;;;17.90;99.90;;;17.03;100.00;97041.22;5023136;28;20921;-82
2022/06/23 01:26:18;;;;;;;30.95;14.63;;;17.80;99.90;;;17.02;100.00;97044.19;5054022;28;20400;-82
2022/06/23 01:28:46;;;;;;;35.83;15.13;;;17.80;99.90;;;16.99;100.00;97055.47;5038572;28;20498;-82
2022/06/23 01:31:18;;;;;;;31.45;14.90;;;17.80;99.90;;;16.95;100.00;97055.28;5052917;28;20444;-82
2022/06/23 01:33:51;;;;;;;32.47;14.95;;;17.80;99.90;;;16.92;100.00;97057.75;5052479;28;20401;-82
2022/06/23 01:36:24;;;;;;;31.85;14.90;;;17.70;99.90;;;16.89;100.00;97053.81;5053760;28;20398;-82
2022/06/23 01:39:00;;;;;;;38.05;15.10;;;17.70;99.90;;;16.86;100.00;97051.72;5052281;28;20393;-82
2022/06/23 01:41:34;;;;;;;36.30;16.55;;;17.70;99.90;;;16.84;100.00;97053.13;5052869;28;20444;-82
2022/06/23 01:44:15;;;;;;;34.78;15.98;;;17.70;99.90;;;16.80;100.00;97054.81;5053751;28;20397;-83
2022/06/23 01:46:45;;;;;;;32.83;14.75;;;17.60;99.90;;;16.76;100.00;97053.84;5052352;28;20733;-82
2022/06/23 01:49:17;;;;;;;34.90;14.97;;;17.60;99.90;;;16.76;100.00;97057.31;5052864;28;20488;-82
2022/06/23 01:51:49;;;;;;;30.60;14.40;;;17.50;99.90;;;16.75;100.00;97052.25;5053100;28;20791;-82
2022/06/23 01:54:24;;;;;;;36.78;14.98;;;17.60;99.90;;;16.73;100.00;97059.75;5053530;28;20447;-82
2022/06/23 01:57:02;;;;;;;31.90;14.63;;;17.50;99.90;;;16.69;100.00;97061.47;5053436;28;20883;-82
2022/06/23 01:59:56;;;;;;;33.22;14.95;;;17.50;99.90;;;16.64;100.00;97057.78;5052013;28;20433;-82
2022/06/23 02:02:45;;;;;;;27.88;14.30;;;17.50;99.90;;;16.62;100.00;97051.16;5052624;28;20440;-82
2022/06/23 02:05:24;;;;;;;34.43;14.87;;;17.40;99.90;;;16.61;100.00;97050.34;5052482;28;20416;-82
2022/06/23 02:07:57;;;;;;;33.05;14.52;;;17.40;99.90;;;16.60;100.00;97050.63;5053164;28;20393;-83
2022/06/23 02:10:32;;;;;;;30.88;14.32;;;17.40;99.90;;;16.58;100.00;97052.81;5051266;28;20425;-81
2022/06/23 02:13:14;;;;;;;33.45;14.27;;;17.40;99.90;;;16.55;100.00;97048.84;5052404;28;20402;-83
2022/06/23 02:15:57;;;;;;;27.10;13.65;;;17.40;99.90;;;16.51;100.00;97047.06;5052743;28;20764;-82
2022/06/23 02:18:30;;;;;;;32.42;14.45;;;17.40;99.90;;;16.49;100.00;97044.69;5051778;28;20485;-83
2022/06/23 02:21:18;;;;;;;29.67;14.05;;;17.30;99.90;;;16.46;100.00;97045.31;5051752;28;20393;-82
2022/06/23 02:23:53;;;;;;;31.33;13.85;;;17.30;99.90;;;16.43;100.00;97045.88;5052433;28;20417;-82
2022/06/23 02:26:26;;;;;;;25.92;13.07;;;17.30;99.90;;;16.42;100.00;97048.84;5052591;28;20405;-82
2022/06/23 02:29:02;;;;;;;27.88;13.05;;;17.20;99.90;;;16.40;100.00;97049.13;5051753;28;20401;-82
2022/06/23 02:31:37;;;;;;;28.83;13.52;;;17.20;99.90;;;16.37;100.00;97052.41;5051775;28;21032;-82
2022/06/23 02:34:15;;;;;;;33.20;14.00;;;17.20;99.90;;;16.36;100.00;97060.72;5052409;28;20759;-82
2022/06/23 02:37:05;;;;;;;30.63;13.93;;;17.20;99.90;;;16.33;100.00;97056.75;5034084;28;20410;-82
2022/06/23 02:39:42;;;;;;;29.17;13.82;;;17.20;99.90;;;16.32;100.00;97052.50;5051446;28;20405;-82
2022/06/23 02:42:23;;;;;;;25.58;12.80;;;17.20;99.90;;;16.32;100.00;97051.69;5051384;28;20429;-82
2022/06/23 02:45:24;;;;;;;29.15;14.07;;;17.10;99.90;;;16.31;100.00;97053.59;5051670;28;20393;-83
2022/06/23 02:48:12;;;;;;;28.70;14.02;;;17.20;99.90;;;16.30;100.00;97059.25;5051636;28;20455;-82
2022/06/23 02:50:59;;;;;;;27.80;13.27;;;17.10;99.90;;;16.28;100.00;97054.19;5051085;28;20417;-82
2022/06/23 02:53:52;;;;;;;33.63;14.75;;;17.10;99.90;;;16.30;100.00;97067.25;5051291;28;20399;-82
2022/06/23 02:56:39;;;;;;;35.10;14.65;;;17.20;99.90;;;16.25;100.00;97071.56;5051183;28;20465;-83
2022/06/23 02:59:13;;;;;;;29.42;13.73;;;17.10;99.90;;;16.21;100.00;97073.28;5050415;28;20409;-83
2022/06/23 03:01:45;;;;;;;27.42;12.98;;;17.00;99.90;;;16.20;100.00;97087.69;5051171;28;20489;-83
2022/06/23 03:04:22;;;;;;;30.83;13.30;;;17.00;99.90;;;16.21;100.00;97083.16;5051869;28;20466;-83
2022/06/23 03:07:02;;;;;;;29.70;14.67;;;17.00;99.90;;;16.21;100.00;97085.81;5051241;28;20401;-82
2022/06/23 03:09:35;;;;;;;31.90;13.80;;;17.10;99.90;;;16.23;100.00;97084.47;5050878;28;20444;-82
2022/06/23 03:12:11;;;;;;;28.65;13.82;;;17.10;99.90;;;16.23;100.00;97064.97;5050882;28;20404;-82
2022/06/23 03:14:51;;;;;;;22.83;12.18;;;17.10;99.90;;;16.23;100.00;97075.66;5051128;28;20416;-82
2022/06/23 03:17:24;;;;;;;27.52;12.23;;;17.10;99.90;;;16.21;100.00;97086.63;5051256;28;20822;-82
2022/06/23 03:20:02;;;;;;;26.75;13.30;;;17.10;99.90;;;16.23;100.00;97075.66;5051273;28;20389;-82
2022/06/23 03:22:34;;;;;;;27.77;12.60;;;17.10;99.90;;;16.22;100.00;97080.19;5051471;28;20413;-83
2022/06/23 03:25:07;;;;;;;29.40;13.02;;;17.00;99.90;;;16.22;100.00;97087.41;5051418;28;20894;-83
2022/06/23 03:27:42;;;;;;;28.42;12.63;;;17.00;99.90;;;16.20;100.00;97085.03;5051583;28;20401;-83
2022/06/23 03:30:20;;;;;;;31.13;12.73;;;17.00;99.90;;;16.22;100.00;97095.44;5050487;28;20890;-83
2022/06/23 03:32:54;;;;;;;25.02;12.18;;;17.00;99.90;;;16.22;100.00;97098.09;5051277;28;20393;-82
2022/06/23 03:35:27;;;;;;;27.27;12.07;;;17.10;99.90;;;16.21;100.00;97096.50;5051691;28;20485;-83
2022/06/23 03:38:06;;;;;;;25.95;12.88;;;17.00;99.90;;;16.22;100.00;97101.56;5051185;28;20390;-82
2022/06/23 03:43:43;;;;;;;25.10;12.25;;;17.00;99.90;;;16.25;100.00;97102.84;5051386;28;20450;-82
2022/06/23 03:46:19;;;;;;;25.85;12.20;;;17.10;99.90;;;16.26;100.00;97099.09;5033255;28;20417;-82
2022/06/23 03:48:52;;;;;;;26.90;12.75;;;17.10;99.90;;;16.26;100.00;97105.22;5050486;28;20486;-82
2022/06/23 03:51:25;;;;;;;24.52;11.32;;;17.10;99.90;;;16.24;100.00;97106.59;5050631;28;20500;-82
2022/06/23 03:54:02;;;;;;;26.55;12.32;;;17.10;99.90;;;16.26;100.00;97099.09;5051086;28;20464;-82
2022/06/23 03:56:35;;;;;;;25.23;12.25;;;17.10;99.90;;;16.25;100.00;97097.50;5046939;28;20409;-79
2022/06/23 03:59:13;;;;;;;24.13;11.82;;;17.10;99.90;;;16.25;100.00;97092.16;5049732;28;20906;-81
2022/06/23 04:01:47;;;;;;;29.58;12.00;;;17.00;99.90;;;16.23;100.00;97097.81;5050627;28;20405;-82
2022/06/23 04:04:16;;;;;;;21.13;11.57;;;17.00;99.90;;;16.23;100.00;97100.47;5050687;28;20391;-82
2022/06/23 04:06:47;;;;;;;26.70;12.10;;;17.00;99.90;;;16.23;100.00;97108.50;5048356;28;20409;-82
2022/06/23 04:09:18;;;;;;;22.25;11.70;;;17.00;99.90;;;16.26;100.00;97109.75;5043007;28;20397;-83
2022/06/23 04:11:56;;;;;;;19.02;10.88;;;17.10;99.90;;;16.28;100.00;97110.28;5057434;28;20424;-82
2022/06/23 04:14:41;;;;;;;18.30;10.40;;;17.10;99.90;;;16.29;100.00;97109.19;5056827;28;20404;-80
2022/06/23 04:17:26;;;;;;;20.98;10.52;;;17.10;99.90;;;16.32;100.00;97110.47;5051925;28;20389;-81
2022/06/23 04:19:58;;;;;;;21.58;11.20;;;17.10;99.90;;;16.35;100.00;97115.22;5050417;28;20751;-80
2022/06/23 04:22:35;;;;;;;23.33;11.25;;;17.20;99.90;;;16.35;100.00;97117.91;5049274;28;20406;-80
2022/06/23 04:25:05;;;;;;;24.02;11.02;;;17.20;99.90;;;16.37;100.00;97118.41;5050630;28;20492;-81
2022/06/23 04:27:37;;;;;;;28.03;11.70;;;17.20;99.90;;;16.36;100.00;97114.16;5050342;28;20411;-81
2022/06/23 04:30:05;;;;;;;19.90;11.18;;;17.20;99.90;;;16.35;100.00;97116.03;5049169;28;20487;-82
2022/06/23 04:32:36;;;;;;;25.45;11.40;;;17.20;99.90;;;16.36;100.00;97119.50;5050539;28;20879;-82
2022/06/23 04:35:13;;;;;;;24.48;11.10;;;17.20;99.90;;;16.35;100.00;97116.03;5050222;28;20958;-81
2022/06/23 04:37:56;;;;;;;20.70;10.23;;;17.10;99.90;;;16.35;100.00;97120.56;5050438;28;20401;-81
2022/06/23 04:40:27;;;;;;;22.15;10.43;;;17.20;99.90;;;16.34;100.00;97116.31;5049598;28;20394;-81
2022/06/23 04:42:58;;;;;;;24.77;12.13;;;17.10;99.90;;;16.35;100.00;97120.56;5050202;28;20401;-82
2022/06/23 04:45:53;;;;;;;23.08;10.93;;;17.20;99.90;;;16.37;100.00;97118.41;5047335;28;20425;-77
2022/06/23 04:48:29;;;;;;;24.58;11.60;;;17.20;99.90;;;16.39;100.00;97121.59;5027519;28;20456;-82
2022/06/23 04:51:02;;;;;;;20.17;11.40;;;17.20;99.90;;;16.39;100.00;97121.59;5047183;28;20425;-78
2022/06/23 04:53:51;;;;;;;23.52;10.93;;;17.20;99.90;;;16.43;100.00;97118.00;5049246;28;20455;-78
2022/06/23 04:56:35;;;;;;;20.08;10.50;;;17.20;99.90;;;16.49;100.00;97116.84;5049065;28;20394;-78
2022/06/23 04:59:18;;;;;;;19.40;10.32;;;17.30;99.90;;;16.57;100.00;97126.03;5046231;28;20429;-78
2022/06/23 05:01:48;;;;;;;23.87;11.47;;;17.30;99.90;;;16.65;100.00;97120.03;5048542;28;20429;-79
2022/06/23 05:04:19;;;;;;;23.20;11.88;;;17.40;99.90;;;16.74;100.00;97122.81;5049357;28;20393;-79
2022/06/23 05:06:50;;;;;;;25.27;11.75;;;17.50;99.90;;;16.81;100.00;97125.91;5049402;28;20441;-79
2022/06/23 05:09:26;;;;;;;23.33;11.32;;;17.60;99.90;;;16.88;100.00;97115.59;5048790;28;20492;-79
2022/06/23 05:11:58;;;;;;;21.92;11.02;;;17.70;99.90;;;16.95;100.00;97116.00;5049256;28;20452;-79
2022/06/23 05:14:33;;;;;;;25.33;12.40;;;17.70;99.90;;;17.01;100.00;97125.47;5031560;28;20786;-79
2022/06/23 05:17:13;;;;;;;21.42;11.65;;;17.70;99.90;;;17.07;100.00;97120.81;5049406;28;20887;-79
2022/06/23 05:19:41;;;;;;;24.00;11.55;;;17.80;99.90;;;17.12;100.00;97126.88;5048718;28;20398;-79
2022/06/23 05:22:22;;;;;;;26.25;11.57;;;17.90;99.90;;;17.17;100.00;97124.09;5052213;28;20971;-79
2022/06/23 05:24:50;;;;;;;22.90;11.27;;;17.90;99.90;;;17.22;100.00;97123.97;5052904;28;20759;-79
2022/06/23 05:27:23;;;;;;;27.67;11.47;;;18.00;99.90;;;17.27;100.00;97123.09;5059878;28;20402;-80
2022/06/23 05:29:58;;;;;;;20.85;11.40;;;18.00;99.90;;;17.32;100.00;97122.97;5061095;28;20409;-81
2022/06/23 05:32:28;;;;;;;22.60;11.20;;;18.10;99.90;;;17.38;100.00;97122.56;5065661;28;20408;-81
2022/06/23 05:35:02;;;;;;;23.13;10.82;;;18.10;99.90;;;17.43;100.00;97116.31;5051328;28;20454;-79
2022/06/23 05:37:35;;;;;;;24.25;10.65;;;18.20;99.90;;;17.49;100.00;97117.00;5055070;28;20436;-79
2022/06/23 05:40:22;;;;;;;24.98;10.93;;;18.30;99.90;;;17.57;100.00;97126.97;5055961;28;20604;-79
2022/06/23 05:42:54;;;;;;;23.80;11.00;;;18.30;99.90;;;17.64;100.00;97122.81;5055191;28;20394;-80
2022/06/23 05:45:25;;;;;;;20.63;10.18;;;18.40;99.90;;;17.70;100.00;97121.63;5053702;28;20462;-79
2022/06/23 05:47:52;;;;;;;20.95;9.80;;;18.40;99.90;;;17.75;100.00;97118.00;5052870;28;20398;-79
2022/06/23 05:50:25;;;;;;;22.55;10.00;;;18.50;99.90;;;17.79;100.00;97124.38;5051689;28;20919;-80
2022/06/23 05:52:58;;;;;;;25.00;10.23;;;18.50;99.90;;;17.82;100.00;97123.75;5081327;22;20477;-73
2022/06/23 05:55:33;;;;;;;26.42;10.15;;;18.60;99.90;;;17.85;100.00;97130.38;5071602;28;20403;-73
2022/06/23 05:58:10;;;;;;;23.48;10.30;;;18.60;99.90;;;17.88;100.00;97127.09;5058015;28;20420;-74
2022/06/23 06:00:48;;;;;;;21.10;9.95;;;18.60;99.90;;;17.90;100.00;97120.34;5069862;28;20839;-73
2022/06/23 06:03:22;;;;;;;26.05;9.80;;;18.60;99.90;;;17.94;100.00;97125.88;5068477;28;20389;-73
2022/06/23 06:05:53;;;;;;;22.85;9.65;;;18.60;99.90;;;17.96;100.00;97118.34;5050183;28;20405;-73
2022/06/23 06:08:25;;;;;;;16.60;9.10;;;18.70;99.90;;;18.01;100.00;97120.91;5049938;28;20425;-73
2022/06/23 06:10:54;;;;;;;19.65;9.05;;;18.70;99.90;;;18.06;100.00;97124.22;5049973;28;20423;-73
2022/06/23 06:13:28;;;;;;;20.47;9.23;;;18.80;99.90;;;18.11;100.00;97121.44;5049689;28;20911;-73
2022/06/23 06:15:58;;;;;;;21.25;8.73;;;18.80;99.90;;;18.15;100.00;97126.97;5049751;28;20410;-73
2022/06/23 06:18:30;;;;;;;18.95;8.38;;;18.90;99.90;;;18.18;100.00;97137.88;5049331;28;20747;-73
2022/06/23 06:21:00;;;;;;;23.00;8.73;;;18.90;99.90;;;18.22;100.00;97131.91;5050657;28;20393;-73
2022/06/23 06:23:38;;;;;;;26.38;9.60;;;18.90;99.90;;;18.29;100.00;97134.94;5051871;28;20402;-72
2022/06/23 06:26:05;;;;;;;19.58;8.85;;;19.00;99.90;;;18.36;100.00;97132.59;5049278;28;20457;-72
2022/06/23 06:28:34;;;;;;;16.48;8.30;;;19.00;99.90;;;18.42;100.00;97134.06;5042903;28;20920;-72
2022/06/23 06:31:22;;;;;;;18.60;7.53;;;19.10;99.90;;;18.47;100.00;97131.25;5042414;28;20452;-73
2022/06/23 06:33:59;;;;;;;18.13;7.00;;;19.20;99.90;;;18.48;100.00;97132.84;5047284;28;20408;-73
2022/06/23 06:36:31;;;;;;;26.27;7.40;;;19.20;99.90;;;18.38;100.00;97141.13;5051417;28;20778;-73
2022/06/23 06:39:07;;;;;;;15.52;6.82;;;19.00;99.90;;;18.50;100.00;97147.50;5050988;28;20393;-73
2022/06/23 06:41:35;;;;;;;19.88;7.38;;;19.20;99.90;;;18.50;100.00;97139.47;5051030;28;20398;-73
2022/06/23 06:44:03;;;;;;;16.70;7.07;;;19.20;99.90;;;18.59;100.00;97147.59;5051208;28;20516;-74
2022/06/23 06:46:30;;;;;;;21.08;7.18;;;19.30;99.90;;;18.66;100.00;97147.13;5051012;28;20416;-73
2022/06/23 06:48:57;;;;;;;19.40;7.40;;;19.30;99.90;;;18.65;100.00;97151.72;5050605;28;20450;-73
2022/06/23 06:51:27;;;;;;;20.90;7.45;;;19.40;99.90;;;18.76;100.00;97154.94;5050557;28;20424;-73
2022/06/23 06:53:58;;;;;;;19.73;6.25;;;19.40;99.90;;;18.76;100.00;97158.41;5045473;28;20411;-72
2022/06/23 06:56:33;;;;;;;13.57;5.30;;;19.40;99.90;;;18.86;100.00;97158.13;5050755;28;20429;-73
2022/06/23 06:59:12;;;;;;;18.85;6.22;;;19.60;99.90;;;18.72;100.00;97154.72;5050489;28;20394;-73
2022/06/23 07:01:42;;;;;;;17.50;6.57;;;19.40;99.90;;;18.85;100.00;97153.06;5050753;28;20396;-74
2022/06/23 07:04:16;;;;;;;13.45;5.43;;;19.50;99.90;;;18.89;100.00;97154.81;5050959;28;20957;-73
2022/06/23 07:06:48;;;;;;;17.10;5.95;;;19.60;99.90;;;18.89;100.00;97151.34;5050734;28;20393;-73
2022/06/23 07:09:26;;;;;;;15.25;5.60;;;19.50;99.90;;;18.91;100.00;97152.63;5050158;28;20417;-75
2022/06/23 07:11:58;;;;;;;14.23;5.50;;;19.60;99.90;;;18.93;100.00;97155.78;5050459;28;20413;-75
2022/06/23 07:14:32;;;;;;;12.32;5.45;;;19.60;99.90;;;18.97;100.00;97158.63;5050675;28;20386;-74
2022/06/23 07:17:04;;;;;;;9.02;5.10;;;19.60;99.90;;;18.99;100.00;97164.47;5050791;28;20390;-75
2022/06/23 07:19:38;;;;;;;16.77;4.70;;;19.70;99.90;;;19.02;100.00;97155.03;5050010;28;20747;-75
2022/06/23 07:22:16;;;;;;;14.45;5.38;;;19.70;99.90;;;19.07;100.00;97157.56;5050217;28;20394;-75
2022/06/23 07:24:48;;;;;;;10.77;5.28;;;19.70;99.90;;;19.17;100.00;97152.69;5055389;28;20424;-73
2022/06/23 07:27:22;;;;;;;12.57;5.40;;;19.80;99.90;;;19.20;100.00;97154.75;5070492;28;20470;-75
2022/06/23 07:29:58;;;;;;;14.93;5.60;;;19.90;99.90;;;19.15;100.00;97146.88;5069605;28;20392;-74
2022/06/23 07:32:42;;;;;;;13.98;5.45;;;19.80;99.90;;;19.06;100.00;97148.72;5070284;28;20396;-72
2022/06/23 07:35:26;;;;;;;13.98;5.60;;;19.80;99.90;;;19.21;100.00;97148.28;5070093;28;20404;-74
2022/06/23 07:38:01;;;;;;;13.52;5.38;;;19.80;99.90;;;19.33;100.00;97150.34;5067112;28;20469;-75
2022/06/23 07:40:33;;;;;;;16.08;5.50;;;20.00;99.90;;;19.31;100.00;97144.53;5043370;28;20408;-74
2022/06/23 07:43:08;;;;;;;16.87;6.23;;;20.00;99.90;;;19.43;100.00;97141.22;5045869;28;20413;-74
2022/06/23 07:45:43;;;;;;;15.73;5.50;;;20.10;99.90;;;19.50;100.00;97142.38;5052234;28;20417;-74
2022/06/23 07:48:09;;;;;;;19.20;5.83;;;20.20;99.90;;;19.56;100.00;97135.75;5051933;28;21028;-74
2022/06/23 07:50:35;;;;;;;19.33;5.80;;;20.20;99.90;;;19.52;100.00;97132.13;5049413;28;20463;-73
2022/06/23 07:53:01;;;;;;;14.75;5.57;;;20.20;99.90;;;19.71;100.00;97131.81;5050018;28;20420;-73
2022/06/23 07:55:33;;;;;;;17.92;5.72;;;20.40;99.90;;;19.73;100.00;97128.81;5049976;28;20437;-74
2022/06/23 07:58:00;;;;;;;12.35;4.93;;;20.40;99.90;;;19.88;100.00;97125.66;5049896;28;20405;-74
2022/06/23 08:00:27;;;;;;;12.13;5.10;;;20.50;99.90;;;19.96;100.00;97120.28;5049263;28;20401;-76
2022/06/23 08:03:00;;;;;;;13.07;4.50;;;20.50;99.90;;;20.09;100.00;97121.97;5050378;28;20421;-74
2022/06/23 08:05:32;;;;;;;12.02;4.25;;;20.70;99.90;;;20.21;100.00;97123.25;5049520;28;20496;-75
2022/06/23 08:07:59;;;;;;;11.02;4.30;;;20.80;99.90;;;20.40;100.00;97112.94;5049786;28;20412;-75
2022/06/23 08:10:29;;;;;;;9.32;4.20;;;21.00;99.90;;;20.50;100.00;97109.13;5048849;28;20421;-74
2022/06/23 08:13:01;;;;;;;10.32;4.28;;;21.10;99.90;;;20.56;100.00;97113.22;5049840;28;20446;-75
2022/06/23 08:18:28;;;;;;;10.27;4.38;;;21.30;99.90;;;20.74;100.00;97117.44;5048067;28;20432;-81
2022/06/23 08:21:05;;;;;;;8.77;3.92;;;21.40;99.90;;;20.78;100.00;97110.28;5052285;28;20425;-80
2022/06/23 08:23:37;;;;;;;10.70;4.10;;;21.40;99.90;;;20.82;100.00;97111.97;5049641;28;20393;-75
2022/06/23 08:26:07;;;;;;;10.97;4.17;;;21.50;99.90;;;20.89;100.00;97110.72;5049086;28;20419;-76
2022/06/23 08:28:33;;;;;;;9.23;3.95;;;21.50;99.90;;;20.94;100.00;97105.13;5049032;28;20401;-74
2022/06/23 08:30:59;;;;;;;12.97;4.17;;;21.50;99.90;;;20.99;100.00;97099.56;5049132;28;20494;-74
2022/06/23 08:33:27;;;;;;;12.25;4.75;;;21.60;99.90;;;21.07;100.00;97094.13;5047627;28;20416;-75
2022/06/23 08:35:57;;;;;;;10.25;3.95;;;21.70;99.90;;;21.11;100.00;97091.59;5048757;28;20532;-75
2022/06/23 08:38:28;;;;;;;9.67;3.93;;;21.70;99.90;;;21.17;100.00;97093.00;5048383;28;20895;-75
2022/06/23 08:41:08;;;;;;;10.35;3.70;;;21.80;99.90;;;21.21;100.00;97091.22;5065447;28;20396;-75
2022/06/23 08:43:41;;;;;;;13.85;5.68;;;21.90;99.90;;;21.31;100.00;97087.38;5056148;28;20407;-73
2022/06/23 08:46:18;;;;;;;9.25;4.32;;;21.90;99.90;;;21.36;100.00;97089.84;5057507;28;20394;-72
2022/06/23 08:48:55;;;;;;;10.27;3.70;;;22.00;99.90;;;21.15;100.00;97087.13;5064947;28;20395;-76
2022/06/23 08:51:32;;;;;;;13.85;3.85;;;21.80;99.90;;;20.98;100.00;97084.53;5053877;28;20424;-76
2022/06/23 08:54:10;;;;;;;12.57;3.40;;;21.60;99.90;;;20.83;100.00;97081.28;5047148;28;20404;-74
2022/06/23 08:56:45;;;;;;;14.68;4.05;;;21.40;99.90;;;20.93;100.00;97077.44;5051382;28;20498;-75
2022/06/23 08:59:20;;;;;;;12.63;4.47;;;21.50;99.90;;;21.19;100.00;97077.31;5051620;28;20488;-74
2022/06/23 09:01:58;;;;;;;9.52;4.05;;;21.70;99.90;;;21.42;100.00;97072.41;5045129;28;20528;-75
2022/06/23 09:04:38;;;;;;;10.25;3.90;;;22.00;99.90;;;21.62;100.00;97079.69;5047767;28;20410;-76
2022/06/23 09:07:15;;;;;;;11.60;3.90;;;22.20;99.90;;;21.67;100.00;97078.69;5050820;28;20460;-72
2022/06/23 09:09:49;;;;;;;12.10;3.92;;;22.30;99.90;;;21.73;100.00;97074.69;5053417;28;20396;-76
2022/06/23 09:12:22;;;;;;;14.70;4.03;;;22.30;99.90;;;21.74;100.00;97071.66;5050123;28;20794;-76
2022/06/23 09:15:44;;;;;;;11.50;4.07;;;22.40;99.90;;;21.84;100.00;97073.94;5052741;28;20393;-74
2022/06/23 09:19:03;;;;;;;10.48;3.20;;;22.40;99.90;;;22.03;100.00;97075.41;4996702;28;20518;-75
2022/06/23 09:21:57;;;;;;;11.52;3.42;;;22.50;99.90;;;22.18;100.00;97070.16;5026367;28;20831;-75
2022/06/23 09:24:55;;;;;;;8.97;4.37;;;22.70;99.90;;;22.27;100.00;97062.75;5021079;28;20397;-75
2022/06/23 09:27:42;;;;;;;7.87;3.50;;;22.80;99.90;;;22.28;100.00;97063.53;5009361;28;20639;-75
2022/06/23 09:30:19;;;;;;;9.30;3.87;;;22.90;99.90;;;22.40;100.00;97058.19;5022825;28;20706;-75
2022/06/23 09:32:59;;;;;;;11.30;3.90;;;23.00;99.90;;;22.54;100.00;97058.66;5026040;28;20527;-74
2022/06/23 09:35:54;;;;;;;14.27;3.85;;;23.10;99.90;;;22.59;100.00;97058.41;5045838;28;20480;-74
2022/06/23 09:39:04;;;;;;;11.10;3.70;;;23.10;99.90;;;22.74;100.00;97062.38;5052114;28;20405;-76
2022/06/23 09:42:05;;;;;;;10.27;4.13;;;23.30;99.90;;;22.85;100.00;97051.94;5041808;28;20552;-72
2022/06/23 09:44:53;;;;;;;7.97;3.38;;;23.40;99.90;;;22.88;100.00;97057.44;5046399;28;20408;-72
2022/06/23 09:47:54;;;;;;;11.35;3.70;;;23.40;99.90;;;22.93;100.00;97051.81;5045031;28;20441;-76
2022/06/23 09:50:46;;;;;;;9.13;3.78;;;23.50;99.90;;;23.02;100.00;97047.06;5050494;28;20498;-73
2022/06/23 09:53:39;;;;;;;10.05;3.83;;;23.60;99.90;;;23.10;100.00;97050.78;5052157;28;20484;-77
2022/06/23 09:56:42;;;;;;;7.38;3.00;;;23.60;99.90;;;23.24;100.00;97047.69;5051350;28;20773;-75
2022/06/23 09:59:44;;;;;;;8.00;3.45;;;23.70;99.90;;;23.28;100.00;97035.91;5050364;28;20571;-73
2022/06/23 10:02:20;;;;;;;7.82;3.70;;;23.80;99.90;;;;;;5051754;28;20467;-73
2022/06/23 10:05:01;;;;;;;9.88;3.97;;;23.70;99.90;;;23.15;100.00;97032.41;5052042;28;20424;-74
2022/06/23 10:08:04;;;;;;;9.50;3.40;;;23.70;99.90;;;23.22;100.00;97039.97;5050994;28;20400;-74
2022/06/23 10:11:10;;;;;;;9.88;3.90;;;23.80;99.90;;;23.18;100.00;97036.34;5051587;28;20879;-76
2022/06/23 10:14:03;;;;;;;14.88;4.10;;;23.60;99.90;;;23.39;100.00;97038.88;5051885;28;20401;-74
2022/06/23 10:16:49;;;;;;;8.80;3.15;;;23.90;99.90;;;23.65;100.00;97047.41;5051719;28;20405;-73
2022/06/23 10:19:37;;;;;;;6.47;3.30;;;24.10;99.90;;;23.81;100.00;97048.25;5051126;28;20408;-75
2022/06/23 10:22:45;;;;;;;7.82;3.08;;;24.30;99.90;;;24.03;100.00;97032.59;5051364;28;20389;-75
2022/06/23 10:25:31;;;;;;;14.48;3.72;;;24.50;99.90;;;24.05;100.00;97035.75;5049443;28;20405;-73
2022/06/23 10:28:20;;;;;;;11.70;3.38;;;24.40;99.90;;;24.27;100.00;97032.47;5051809;28;20401;-72
2022/06/23 10:30:59;;;;;;;14.48;3.25;;;24.70;99.90;;;24.71;100.00;97027.75;5051178;28;20474;-74
2022/06/23 10:33:49;;;;;;;12.73;3.17;;;25.10;99.90;;;25.41;100.00;97017.69;5051454;28;20393;-72
2022/06/23 10:36:42;;;;;;;6.90;3.13;;;25.80;99.90;;;26.59;100.00;97017.97;5051325;28;20435;-71
2022/06/23 10:39:44;;;;;;;7.47;2.95;;;27.00;99.90;;;27.91;100.00;97015.09;5050725;28;20401;-75
2022/06/23 10:42:40;;;;;;;9.50;3.20;;;28.30;99.90;;;28.99;100.00;97008.28;5050942;28;20445;-72
2022/06/23 10:45:26;;;;;;;8.05;2.70;;;29.30;99.90;;;30.04;97.77;97011.88;5051068;28;20402;-72
2022/06/23 10:48:44;;;;;;;15.52;3.83;;;30.20;99.90;;;30.71;82.99;97009.22;5051433;28;20390;-74
2022/06/23 10:51:26;;;;;;;8.57;2.80;;;30.60;99.90;;;31.49;77.58;97008.28;5050902;28;20531;-74